Time;durP1;ratioP1;P1;durP2;ratioP2;P2;SDS_P1;SDS_P2;PMS_P1;PMS_P2;Temp;Humidity;BMP_temperature;BMP_pressure;BME280_temperature;BME280_humidity;BME280_pressure;Samples;Min_cycle;Max_cycle;Signal;HPM_P1;HPM_P2
2024/01/18 00:01:09;;;;;;;;;21.75;16.50;;;;;-0.11;93.41;97702.60;113082;238;41062;-55
2024/01/18 00:03:51;;;;;;;;;25.00;15.00;;;;;-0.08;93.54;97700.47;113149;238;39105;-52
2024/01/18 00:06:28;;;;;;;;;16.50;12.00;;;;;-0.10;93.67;97695.64;113138;239;41896;-52
2024/01/18 00:09:05;;;;;;;;;22.50;15.75;;;;;-0.12;94.15;97695.77;113178;238;39771;-51
2024/01/18 00:11:44;;;;;;;;;18.75;13.00;;;;;-0.12;94.54;97679.13;113194;238;39851;-55
2024/01/18 00:14:20;;;;;;;;;17.50;12.00;;;;;-0.09;94.23;97664.42;113224;238;39613;-56
2024/01/18 00:16:57;;;;;;;;;21.67;15.00;;;;;-0.03;94.47;97663.34;113194;238;39602;-51
2024/01/18 00:19:33;;;;;;;;;21.00;14.00;;;;;0.00;94.10;97653.40;113155;238;39551;-51
2024/01/18 00:22:12;;;;;;;;;22.00;16.00;;;;;0.01;94.17;97649.29;113185;238;39598;-52
2024/01/18 00:24:52;;;;;;;;;13.00;9.00;;;;;0.03;94.13;97645.95;113108;238;39709;-53
2024/01/18 00:27:28;;;;;;;;;16.33;13.33;;;;;0.06;94.29;97637.52;113123;238;40321;-55
2024/01/18 00:30:05;;;;;;;;;12.67;9.67;;;;;0.08;94.38;97649.14;113112;238;40579;-55
2024/01/18 00:32:45;;;;;;;;;18.00;12.50;;;;;0.11;94.39;97656.96;113147;238;40578;-52
2024/01/18 00:35:22;;;;;;;;;16.33;12.00;;;;;0.12;94.36;97659.59;113142;238;39921;-52
2024/01/18 00:38:00;;;;;;;;;22.00;16.00;;;;;0.16;94.48;97654.60;113130;238;40980;-52
2024/01/18 00:40:35;;;;;;;;;16.25;12.50;;;;;0.14;95.04;97646.86;113122;238;39980;-52
2024/01/18 00:43:14;;;;;;;;;21.00;15.00;;;;;0.13;94.87;97649.34;113137;238;40229;-53
2024/01/18 00:45:52;;;;;;;;;13.00;10.25;;;;;0.17;94.52;97658.02;113101;238;40406;-53
2024/01/18 00:48:25;;;;;;;;;22.33;16.67;;;;;0.21;94.71;97665.60;113161;238;40648;-51
2024/01/18 00:51:03;;;;;;;;;22.75;17.00;;;;;0.24;94.59;97663.86;113144;238;40388;-51
2024/01/18 00:53:44;;;;;;;;;18.25;13.00;;;;;0.25;94.66;97661.74;113154;238;39418;-55
2024/01/18 00:56:29;;;;;;;;;18.25;14.00;;;;;0.27;94.71;97660.83;113129;238;40288;-55
2024/01/18 00:59:05;;;;;;;;;17.33;12.00;;;;;0.29;94.59;97653.70;113153;238;39769;-53
2024/01/18 01:01:42;;;;;;;;;23.00;17.00;;;;;0.33;94.70;97645.35;113184;238;39881;-54
2024/01/18 01:04:25;;;;;;;;;20.33;15.00;;;;;0.34;94.74;97644.22;113168;238;39672;-54
2024/01/18 01:07:05;;;;;;;;;23.00;17.00;;;;;0.38;94.61;97641.59;113172;238;40066;-52
2024/01/18 01:09:43;;;;;;;;;15.00;13.00;;;;;0.39;94.62;97637.98;113129;239;42071;-51
2024/01/18 01:12:23;;;;;;;;;15.75;12.50;;;;;0.39;94.67;97641.58;113189;238;39706;-55
2024/01/18 01:15:02;;;;;;;;;16.00;13.00;;;;;0.42;94.85;97643.84;113140;238;41208;-55
2024/01/18 01:17:42;;;;;;;;;17.50;13.00;;;;;0.49;94.70;97646.34;113164;239;39630;-56
2024/01/18 01:20:21;;;;;;;;;20.00;14.50;;;;;0.54;94.59;97644.41;113105;238;39684;-56
2024/01/18 01:23:00;;;;;;;;;18.00;14.00;;;;;0.55;94.59;97638.98;113119;239;40251;-51
2024/01/18 01:25:41;;;;;;;;;25.50;17.00;;;;;0.54;94.78;97637.86;113119;238;39317;-51
2024/01/18 01:28:22;;;;;;;;;17.00;13.00;;;;;0.59;94.67;97640.97;113148;238;39066;-51
2024/01/18 01:31:00;;;;;;;;;21.00;15.00;;;;;0.57;94.78;97640.14;113108;238;39466;-51
2024/01/18 01:33:37;;;;;;;;;19.00;14.00;;;;;0.61;94.77;97635.75;113124;238;39734;-52
2024/01/18 01:36:15;;;;;;;;;21.75;14.00;;;;;0.63;94.72;97637.69;113110;238;39916;-52
2024/01/18 01:38:50;;;;;;;;;17.00;12.00;;;;;0.67;94.70;97643.36;113172;238;41343;-52
2024/01/18 01:41:27;;;;;;;;;15.00;10.67;;;;;0.64;94.73;97636.67;113142;238;39231;-52
2024/01/18 01:44:07;;;;;;;;;17.00;12.33;;;;;0.63;94.82;97631.48;113181;238;40283;-52
2024/01/18 01:46:46;;;;;;;;;16.00;12.25;;;;;0.61;95.07;97629.05;113186;238;39640;-53
2024/01/18 01:49:24;;;;;;;;;24.00;17.00;;;;;0.62;95.09;97621.17;113161;238;39319;-52
2024/01/18 01:52:02;;;;;;;;;19.00;15.00;;;;;0.67;95.01;97622.52;113182;238;39365;-54
2024/01/18 01:54:40;;;;;;;;;21.75;16.00;;;;;0.69;95.11;97611.98;113152;238;39826;-54
2024/01/18 01:57:16;;;;;;;;;22.25;16.00;;;;;0.74;95.04;97615.93;113169;238;41153;-51
2024/01/18 01:59:51;;;;;;;;;15.00;10.00;;;;;0.76;94.94;97619.95;113133;238;39677;-50
2024/01/18 02:02:28;;;;;;;;;17.00;12.00;;;;;0.75;95.03;97619.55;113140;238;39189;-51
2024/01/18 02:05:07;;;;;;;;;19.00;13.50;;;;;0.76;95.03;97615.70;113148;239;40386;-50
2024/01/18 02:07:43;;;;;;;;;17.00;12.50;;;;;0.73;94.97;97617.52;113133;238;39326;-50
2024/01/18 02:10:18;;;;;;;;;21.00;15.00;;;;;0.73;94.94;97609.23;113160;238;41444;-50
2024/01/18 02:12:55;;;;;;;;;19.50;12.50;;;;;0.74;94.91;97607.89;113136;238;39093;-56
2024/01/18 02:15:32;;;;;;;;;17.75;14.25;;;;;0.75;95.00;97607.04;113139;238;40225;-56
2024/01/18 02:18:15;;;;;;;;;18.25;14.00;;;;;0.77;95.03;97603.13;113124;238;39605;-55
2024/01/18 02:20:51;;;;;;;;;16.00;13.00;;;;;0.84;95.03;97601.11;113104;238;39548;-56
2024/01/18 02:23:31;;;;;;;;;16.00;12.00;;;;;0.88;94.94;97598.65;113094;238;39353;-54
2024/01/18 02:26:07;;;;;;;;;14.00;11.00;;;;;0.86;94.91;97598.39;113113;238;39244;-54
2024/01/18 02:28:53;;;;;;;;;20.00;13.75;;;;;0.84;94.88;97592.98;113116;239;39670;-54
2024/01/18 02:31:30;;;;;;;;;16.00;11.00;;;;;0.83;95.08;97596.36;113125;238;39626;-54
2024/01/18 02:34:15;;;;;;;;;14.00;10.00;;;;;0.83;95.05;97596.33;113175;238;39597;-55
2024/01/18 02:36:55;;;;;;;;;16.50;12.00;;;;;0.80;95.14;97592.48;113180;238;38994;-54
2024/01/18 02:39:33;;;;;;;;;14.25;12.00;;;;;0.82;95.22;97586.55;113158;239;40872;-55
2024/01/18 02:42:16;;;;;;;;;16.50;13.00;;;;;0.83;95.21;97589.27;113148;238;39642;-54
2024/01/18 02:44:56;;;;;;;;;17.00;13.25;;;;;0.82;95.42;97590.27;113165;238;40182;-55
2024/01/18 02:47:32;;;;;;;;;19.00;14.00;;;;;0.87;95.31;97588.36;113179;238;41033;-53
2024/01/18 02:50:07;;;;;;;;;19.00;14.00;;;;;0.92;95.36;97593.39;113141;239;40938;-53
2024/01/18 02:52:40;;;;;;;;;15.75;12.75;;;;;0.97;95.45;97591.62;113136;238;40059;-50
2024/01/18 02:55:18;;;;;;;;;18.00;14.00;;;;;0.96;95.51;97602.52;113150;238;39298;-51
2024/01/18 02:57:56;;;;;;;;;18.50;13.50;;;;;0.99;95.43;97593.55;113087;239;40615;-53
2024/01/18 03:00:33;;;;;;;;;17.50;13.00;;;;;1.03;95.40;97587.71;113051;237;39645;-54
2024/01/18 03:03:08;;;;;;;;;19.00;14.00;;;;;1.02;95.55;97589.38;113130;237;39682;-56
2024/01/18 03:05:44;;;;;;;;;12.33;10.00;;;;;0.99;95.60;97589.30;113118;237;39206;-56
2024/01/18 03:08:18;;;;;;;;;22.00;15.00;;;;;0.99;95.58;97597.52;113138;238;40081;-55
2024/01/18 03:11:00;;;;;;;;;19.33;14.67;;;;;0.99;95.67;97599.56;113144;237;39111;-56
2024/01/18 03:13:35;;;;;;;;;18.50;14.00;;;;;0.98;95.63;97598.25;113124;238;42991;-52
2024/01/18 03:16:15;;;;;;;;;20.50;15.00;;;;;0.93;95.73;97610.08;113038;237;40724;-52
2024/01/18 03:18:51;;;;;;;;;17.75;14.00;;;;;0.88;95.84;97603.10;113164;237;40119;-51
2024/01/18 03:21:33;;;;;;;;;20.00;13.33;;;;;0.87;95.99;97593.85;113188;238;40580;-52
2024/01/18 03:24:08;;;;;;;;;23.00;18.00;;;;;0.87;96.06;97593.98;113154;238;39317;-54
2024/01/18 03:26:42;;;;;;;;;20.25;15.50;;;;;0.90;95.99;97600.49;113194;238;40320;-55
2024/01/18 03:29:21;;;;;;;;;20.00;15.00;;;;;0.92;96.06;97603.95;113151;238;40641;-56
2024/01/18 03:31:59;;;;;;;;;23.00;15.75;;;;;0.97;96.05;97613.83;113218;238;39785;-54
2024/01/18 03:34:38;;;;;;;;;18.00;15.00;;;;;1.01;96.03;97612.73;113153;238;41100;-54
2024/01/18 03:37:19;;;;;;;;;18.00;14.00;;;;;0.98;96.02;97614.90;113177;238;39816;-54
2024/01/18 03:39:58;;;;;;;;;20.00;16.00;;;;;1.02;96.06;97621.27;113107;238;40846;-55
2024/01/18 03:42:39;;;;;;;;;19.00;15.00;;;;;1.06;96.14;97627.84;113119;238;39528;-56
2024/01/18 03:45:22;;;;;;;;;22.75;17.00;;;;;1.12;96.04;97629.59;113111;238;39855;-55
2024/01/18 03:47:59;;;;;;;;;19.25;13.25;;;;;1.13;96.06;97633.77;113144;238;40726;-53
2024/01/18 03:50:35;;;;;;;;;23.00;17.00;;;;;1.10;96.13;97639.39;113148;238;39112;-54
2024/01/18 03:53:11;;;;;;;;;16.00;13.00;;;;;1.08;96.29;97633.55;113168;238;39332;-51
2024/01/18 03:55:47;;;;;;;;;19.50;14.50;;;;;1.05;96.36;97633.80;113150;239;40888;-51
2024/01/18 03:58:23;;;;;;;;;20.25;15.00;;;;;1.01;96.40;97634.73;113115;239;40269;-53
2024/01/18 04:01:05;;;;;;;;;19.75;13.00;;;;;0.99;96.40;97635.11;113132;239;39609;-53
2024/01/18 04:03:42;;;;;;;;;16.75;14.00;;;;;1.02;96.29;97639.56;113227;239;39704;-54
2024/01/18 04:06:21;;;;;;;;;22.50;17.00;;;;;1.02;96.43;97636.38;113176;238;39700;-55
2024/01/18 04:09:00;;;;;;;;;17.00;13.50;;;;;1.03;96.47;97634.58;113190;238;40250;-50
2024/01/18 04:11:40;;;;;;;;;25.00;18.00;;;;;0.98;96.69;97636.98;113202;238;40066;-51
2024/01/18 04:14:39;;;;;;;;;18.75;15.00;;;;;1.01;96.74;97634.15;113174;238;39489;-50
2024/01/18 04:17:14;;;;;;;;;21.00;15.00;;;;;1.08;96.83;97643.48;113187;238;39189;-53
2024/01/18 04:19:51;;;;;;;;;20.00;17.00;;;;;1.13;96.80;97645.11;113122;238;39525;-54
2024/01/18 04:22:27;;;;;;;;;21.00;18.00;;;;;1.17;96.85;97648.20;113167;238;40106;-55
2024/01/18 04:25:07;;;;;;;;;23.50;17.75;;;;;1.25;96.85;97649.83;113105;238;39471;-55
2024/01/18 04:27:42;;;;;;;;;25.00;19.00;;;;;1.32;97.00;97645.39;113136;238;39634;-54
2024/01/18 04:30:22;;;;;;;;;19.00;15.00;;;;;1.33;96.88;97648.62;113093;238;39928;-53
2024/01/18 04:33:01;;;;;;;;;23.00;19.00;;;;;1.30;97.02;97647.23;113166;238;39289;-52
2024/01/18 04:35:38;;;;;;;;;24.25;19.00;;;;;1.36;97.35;97647.04;113119;238;40193;-52
2024/01/18 04:38:16;;;;;;;;;24.00;18.00;;;;;1.47;97.48;97657.57;113173;239;39785;-53
2024/01/18 04:40:52;;;;;;;;;33.00;23.25;;;;;1.47;97.40;97657.94;113140;238;40467;-53
2024/01/18 04:43:28;;;;;;;;;27.00;21.00;;;;;1.51;97.34;97661.88;113139;238;39564;-51
2024/01/18 04:46:09;;;;;;;;;29.67;21.00;;;;;1.58;97.37;97669.27;113141;238;39220;-51
2024/01/18 04:48:46;;;;;;;;;29.00;22.00;;;;;1.60;97.30;97670.58;113171;238;39648;-53
2024/01/18 04:51:26;;;;;;;;;28.25;21.00;;;;;1.59;97.30;97673.36;113160;238;40110;-53
2024/01/18 04:54:07;;;;;;;;;29.00;22.00;;;;;1.60;97.23;97672.75;113185;238;40759;-55
2024/01/18 04:56:46;;;;;;;;;30.00;21.00;;;;;1.62;97.39;97673.09;113164;238;39690;-54
2024/01/18 04:59:25;;;;;;;;;27.25;20.50;;;;;1.66;97.27;97675.60;113141;238;40751;-56
2024/01/18 05:02:01;;;;;;;;;25.33;20.00;;;;;1.72;97.35;97679.10;113202;238;39990;-56
2024/01/18 05:04:40;;;;;;;;;30.00;23.00;;;;;1.75;97.19;97678.81;113113;238;39802;-55
2024/01/18 05:07:17;;;;;;;;;33.00;23.50;;;;;1.71;97.24;97686.44;112737;238;469400;-50
2024/01/18 05:09:55;;;;;;;;;34.67;23.00;;;;;1.70;97.15;97683.27;113135;238;39180;-49
2024/01/18 05:12:31;;;;;;;;;22.00;17.00;;;;;1.73;97.20;97688.47;113140;239;40145;-53
2024/01/18 05:15:10;;;;;;;;;27.75;21.75;;;;;1.75;97.12;97691.22;113126;238;39876;-54
2024/01/18 05:17:48;;;;;;;;;24.00;17.75;;;;;1.77;97.28;97693.98;113113;239;39544;-50
2024/01/18 05:20:24;;;;;;;;;30.00;24.00;;;;;1.72;97.14;97698.95;113156;238;40911;-50
2024/01/18 05:22:58;;;;;;;;;27.00;18.50;;;;;1.68;97.22;97700.50;113161;238;39641;-51
2024/01/18 05:25:37;;;;;;;;;27.00;20.00;;;;;1.64;97.25;97703.52;113143;238;39415;-52
2024/01/18 05:28:19;;;;;;;;;26.00;20.00;;;;;1.63;97.33;97713.56;113191;238;39487;-53
2024/01/18 05:30:59;;;;;;;;;32.00;24.75;;;;;1.55;97.43;97712.75;113164;238;39952;-53
2024/01/18 05:33:42;;;;;;;;;31.00;22.50;;;;;1.48;97.64;97711.50;113257;238;41034;-49
2024/01/18 05:36:19;;;;;;;;;33.00;23.33;;;;;1.47;97.70;97714.77;113265;238;39148;-49
2024/01/18 05:38:56;;;;;;;;;36.00;26.00;;;;;1.45;97.68;97715.98;113198;238;40900;-53
2024/01/18 05:41:34;;;;;;;;;31.00;23.67;;;;;1.46;97.66;97722.63;113195;238;40332;-52
2024/01/18 05:44:15;;;;;;;;;33.75;23.50;;;;;1.47;97.66;97729.39;113177;238;39390;-51
2024/01/18 05:46:48;;;;;;;;;36.00;24.50;;;;;1.49;97.71;97735.69;113151;238;39932;-52
2024/01/18 05:49:30;;;;;;;;;31.50;22.25;;;;;1.50;97.64;97743.72;113147;238;39092;-50
2024/01/18 05:52:08;;;;;;;;;39.50;26.50;;;;;1.57;97.60;97745.10;113145;238;40763;-49
2024/01/18 05:54:45;;;;;;;;;32.00;22.00;;;;;1.57;97.58;97748.66;113073;238;41787;-50
2024/01/18 05:57:19;;;;;;;;;32.00;22.00;;;;;1.57;97.62;97749.92;113184;238;39211;-52
2024/01/18 05:59:58;;;;;;;;;31.00;23.50;;;;;1.60;97.64;97749.62;113137;238;40645;-52
2024/01/18 06:02:38;;;;;;;;;29.00;20.00;;;;;1.59;97.55;97751.95;113147;239;40872;-55
2024/01/18 06:05:18;;;;;;;;;33.00;24.00;;;;;1.57;97.58;97761.10;113134;238;40165;-56
2024/01/18 06:08:02;;;;;;;;;29.00;20.50;;;;;1.53;97.67;97764.63;113226;238;39536;-50
2024/01/18 06:10:49;;;;;;;;;34.00;23.00;;;;;1.48;97.72;97770.02;113096;238;41172;-53
2024/01/18 06:13:27;;;;;;;;;32.00;24.00;;;;;1.47;97.60;97771.73;113154;238;39449;-52
2024/01/18 06:16:03;;;;;;;;;27.75;20.75;;;;;1.46;97.72;97781.51;113129;238;39554;-52
2024/01/18 06:18:42;;;;;;;;;40.00;26.75;;;;;1.48;97.65;97776.33;113235;238;40045;-54
2024/01/18 06:21:21;;;;;;;;;31.50;24.00;;;;;1.48;97.63;97778.08;113141;239;39572;-54
2024/01/18 06:24:01;;;;;;;;;34.50;23.50;;;;;1.50;97.62;97787.95;113134;238;39604;-52
2024/01/18 06:26:39;;;;;;;;;37.00;27.00;;;;;1.51;97.56;97797.33;113175;238;39873;-54
2024/01/18 06:29:26;;;;;;;;;36.33;25.33;;;;;1.52;97.58;97796.61;113146;238;39180;-55
2024/01/18 06:32:06;;;;;;;;;34.00;25.50;;;;;1.54;97.64;97801.20;113171;238;41243;-51
2024/01/18 06:34:42;;;;;;;;;36.67;26.00;;;;;1.54;97.61;97805.66;113155;238;39851;-49
2024/01/18 06:37:23;;;;;;;;;30.00;22.00;;;;;1.51;97.60;97814.11;113141;238;39522;-52
2024/01/18 06:40:00;;;;;;;;;35.00;24.33;;;;;1.51;97.68;97818.58;113122;238;40340;-53
2024/01/18 06:42:36;;;;;;;;;34.67;23.67;;;;;1.51;97.61;97817.55;113148;238;39316;-52
2024/01/18 06:45:12;;;;;;;;;29.00;22.25;;;;;1.50;97.57;97824.19;113152;238;40352;-52
2024/01/18 06:47:49;;;;;;;;;26.25;19.25;;;;;1.46;97.67;97819.20;113211;238;40549;-55
2024/01/18 06:50:25;;;;;;;;;32.75;22.25;;;;;1.44;97.67;97813.09;113095;238;39504;-55
2024/01/18 06:53:04;;;;;;;;;27.00;20.00;;;;;1.42;97.64;97815.12;113138;238;39632;-55
2024/01/18 06:55:41;;;;;;;;;35.75;24.00;;;;;1.41;97.71;97817.11;113121;238;41270;-55
2024/01/18 06:58:19;;;;;;;;;34.50;25.00;;;;;1.42;97.68;97818.52;113148;238;39347;-49
2024/01/18 07:00:56;;;;;;;;;37.00;24.00;;;;;1.38;97.69;97819.83;113172;238;40272;-49
2024/01/18 07:03:35;;;;;;;;;47.50;28.00;;;;;1.38;97.70;97821.76;113209;238;40198;-50
2024/01/18 07:06:10;;;;;;;;;32.25;21.50;;;;;1.41;97.75;97826.28;113166;238;39330;-50
2024/01/18 07:08:44;;;;;;;;;35.00;25.00;;;;;1.41;97.89;97827.30;113175;238;41091;-53
2024/01/18 07:11:22;;;;;;;;;35.67;25.33;;;;;1.36;97.99;97838.52;113158;238;39274;-53
2024/01/18 07:13:58;;;;;;;;;32.33;24.00;;;;;1.38;97.93;97842.42;113149;238;39373;-55
2024/01/18 07:16:37;;;;;;;;;31.50;23.00;;;;;1.37;97.78;97841.29;113166;238;40009;-54
2024/01/18 07:19:15;;;;;;;;;34.00;24.00;;;;;1.35;97.93;97847.64;113092;238;39208;-55
2024/01/18 07:21:53;;;;;;;;;35.00;24.00;;;;;1.40;97.91;97851.80;113156;238;39155;-53
2024/01/18 07:24:30;;;;;;;;;36.00;25.00;;;;;1.43;97.81;97850.11;113110;238;39481;-52
2024/01/18 07:27:11;;;;;;;;;29.50;21.75;;;;;1.46;97.84;97857.09;113138;238;40551;-53
2024/01/18 07:29:49;;;;;;;;;33.00;22.00;;;;;1.47;97.80;97863.11;113111;238;39211;-53
2024/01/18 07:32:24;;;;;;;;;42.00;28.75;;;;;1.48;97.58;97866.93;113159;238;39954;-51
2024/01/18 07:35:01;;;;;;;;;32.25;24.00;;;;;1.47;97.53;97859.71;113113;238;39832;-50
2024/01/18 07:37:38;;;;;;;;;30.75;23.00;;;;;1.50;97.57;97857.93;113172;238;40044;-53
2024/01/18 07:40:14;;;;;;;;;38.25;25.75;;;;;1.48;97.64;97864.55;113113;238;39797;-53
2024/01/18 07:42:50;;;;;;;;;40.00;27.00;;;;;1.48;97.74;97872.75;113140;238;40827;-53
2024/01/18 07:45:25;;;;;;;;;44.75;30.00;;;;;1.50;97.77;97875.45;113140;238;40162;-53
2024/01/18 07:48:03;;;;;;;;;37.50;27.00;;;;;1.50;97.73;97885.41;113164;238;39988;-54
2024/01/18 07:50:43;;;;;;;;;43.00;29.00;;;;;1.57;97.64;97892.36;113169;238;40100;-54
2024/01/18 07:53:25;;;;;;;;;37.00;27.00;;;;;1.57;97.70;97902.56;113211;238;41422;-50
2024/01/18 07:56:04;;;;;;;;;37.50;28.00;;;;;1.60;97.60;97904.13;113187;239;40339;-50
2024/01/18 07:58:49;;;;;;;;;36.75;27.00;;;;;1.66;97.69;97909.75;113202;238;39413;-50
2024/01/18 08:01:27;;;;;;;;;40.50;30.00;;;;;1.68;97.72;97910.63;113147;238;39648;-50
2024/01/18 08:04:07;;;;;;;;;33.50;24.50;;;;;1.75;97.69;97909.88;113128;239;38960;-49
2024/01/18 08:06:46;;;;;;;;;33.75;24.50;;;;;1.78;97.69;97910.70;113237;238;39808;-52
2024/01/18 08:09:25;;;;;;;;;38.75;27.25;;;;;1.76;97.60;97912.20;113106;238;40719;-51
2024/01/18 08:12:04;;;;;;;;;33.00;24.00;;;;;1.70;97.55;97911.79;113130;238;39221;-53
2024/01/18 08:14:44;;;;;;;;;34.50;24.50;;;;;1.67;97.63;97912.90;113114;238;39724;-53
2024/01/18 08:17:22;;;;;;;;;36.00;25.00;;;;;1.71;97.62;97911.66;113154;238;39582;-51
2024/01/18 08:20:02;;;;;;;;;41.00;27.50;;;;;1.67;97.62;97915.03;113131;238;39636;-51
2024/01/18 08:22:41;;;;;;;;;35.25;23.75;;;;;1.68;97.66;97922.40;113147;238;40379;-50
2024/01/18 08:25:19;;;;;;;;;40.00;27.00;;;;;1.67;97.77;97928.83;113144;238;39305;-49
2024/01/18 08:27:56;;;;;;;;;35.00;25.00;;;;;1.64;97.67;97934.05;113174;238;39659;-50
2024/01/18 08:30:39;;;;;;;;;39.00;27.00;;;;;1.67;97.70;97944.23;113108;238;39198;-49
2024/01/18 08:33:18;;;;;;;;;39.33;28.00;;;;;1.73;97.64;97951.48;113146;238;39386;-53
2024/01/18 08:35:56;;;;;;;;;38.00;26.50;;;;;1.79;97.58;97955.48;113125;238;39840;-53
2024/01/18 08:38:32;;;;;;;;;35.00;25.00;;;;;1.78;97.57;97951.02;113168;238;40219;-54
2024/01/18 08:41:10;;;;;;;;;28.75;21.25;;;;;1.87;97.55;97955.02;113113;238;40100;-55
2024/01/18 08:43:48;;;;;;;;;32.00;24.00;;;;;2.03;97.30;97967.16;113207;238;39301;-51
2024/01/18 08:46:27;;;;;;;;;33.50;24.00;;;;;1.96;97.25;97972.27;113137;238;39757;-51
2024/01/18 08:49:06;;;;;;;;;29.00;20.50;;;;;1.96;97.21;97978.20;113145;238;39528;-53
2024/01/18 08:51:44;;;;;;;;;34.00;24.00;;;;;1.90;97.29;97981.04;113160;238;39533;-49
2024/01/18 08:54:21;;;;;;;;;28.50;21.25;;;;;1.86;97.27;97983.38;113132;238;39582;-49
2024/01/18 08:56:58;;;;;;;;;38.00;27.00;;;;;1.84;97.08;97989.06;113153;238;41163;-48
2024/01/18 08:59:40;;;;;;;;;38.75;28.00;;;;;1.87;96.98;97991.38;113105;239;40476;-49
2024/01/18 09:02:20;;;;;;;;;33.50;22.75;;;;;1.84;96.87;97991.93;113150;238;40742;-52
2024/01/18 09:05:02;;;;;;;;;35.00;25.00;;;;;1.82;96.94;97996.55;113122;238;39309;-53
2024/01/18 09:07:36;;;;;;;;;30.00;20.67;;;;;1.79;96.94;98004.27;113095;239;39983;-51
2024/01/18 09:10:14;;;;;;;;;38.50;25.00;;;;;1.81;96.81;98003.91;113139;238;41810;-52
2024/01/18 09:12:49;;;;;;;;;32.00;21.75;;;;;1.78;96.78;98001.39;113223;238;39326;-51
2024/01/18 09:15:31;;;;;;;;;28.67;20.67;;;;;1.74;96.80;98007.86;113167;238;39538;-49
2024/01/18 09:18:13;;;;;;;;;37.00;23.25;;;;;1.71;96.84;98007.72;113194;238;39874;-50
2024/01/18 09:20:49;;;;;;;;;29.00;18.33;;;;;1.70;96.86;98008.94;113173;239;39904;-51
2024/01/18 09:23:25;;;;;;;;;34.00;24.67;;;;;1.60;96.93;98018.70;113179;238;40594;-53
2024/01/18 09:26:02;;;;;;;;;35.25;26.00;;;;;1.64;96.99;98015.35;113118;238;39869;-52
2024/01/18 09:28:38;;;;;;;;;36.00;25.00;;;;;1.70;96.93;98017.73;113154;238;40364;-50
2024/01/18 09:31:22;;;;;;;;;34.75;24.00;;;;;1.74;96.99;98021.56;113149;238;40105;-50
2024/01/18 09:33:58;;;;;;;;;29.75;21.50;;;;;1.79;96.94;98021.29;113125;239;40301;-50
2024/01/18 09:36:33;;;;;;;;;36.75;24.50;;;;;1.90;97.00;98017.81;113178;238;40153;-55
2024/01/18 09:39:15;;;;;;;;;31.25;23.00;;;;;1.95;96.93;98021.23;113127;238;39848;-55
2024/01/18 09:42:03;;;;;;;;;38.00;26.00;;;;;1.95;96.89;98018.96;113149;238;39692;-55
2024/01/18 09:44:43;;;;;;;;;34.25;23.00;;;;;2.03;96.73;98020.45;113096;238;39787;-55
2024/01/18 09:47:19;;;;;;;;;30.50;21.50;;;;;2.07;96.59;98015.13;113143;238;39251;-52
2024/01/18 09:49:59;;;;;;;;;26.50;19.50;;;;;2.03;96.53;98013.73;113127;238;40035;-52
2024/01/18 09:52:40;;;;;;;;;32.25;22.50;;;;;2.09;96.35;98014.32;113166;238;38860;-52
2024/01/18 09:55:21;;;;;;;;;38.00;27.00;;;;;2.15;96.38;98018.91;113097;238;39719;-54
2024/01/18 09:58:03;;;;;;;;;38.00;25.00;;;;;2.22;96.40;98025.30;113169;238;39401;-50
2024/01/18 10:00:41;;;;;;;;;39.00;27.00;;;;;2.31;96.41;98026.20;113147;238;39996;-51
2024/01/18 10:03:34;;;;;;;;;32.75;24.50;;;;;2.39;96.18;98013.45;113183;239;39869;-52
2024/01/18 10:06:12;;;;;;;;;37.00;23.50;;;;;2.57;96.14;98014.36;113180;238;39020;-51
2024/01/18 10:08:51;;;;;;;;;35.00;24.75;;;;;2.73;96.06;98011.47;113180;238;40358;-54
2024/01/18 10:11:34;;;;;;;;;33.25;22.50;;;;;2.88;95.93;98018.04;113149;238;39278;-54
2024/01/18 10:14:14;;;;;;;;;35.00;24.00;;;;;2.86;95.79;98022.47;113171;238;38910;-52
2024/01/18 10:17:01;;;;;;;;;40.00;28.00;;;;;2.80;95.38;98022.69;113164;239;39328;-55
2024/01/18 10:19:38;;;;;;;;;35.25;24.50;;;;;2.68;95.06;98021.77;113143;238;39230;-56
2024/01/18 10:22:20;;;;;;;;;31.75;21.25;;;;;2.56;95.03;98016.17;113171;238;40851;-54
2024/01/18 10:24:57;;;;;;;;;34.67;24.00;;;;;2.44;94.94;98021.02;113127;238;40057;-55
2024/01/18 10:27:35;;;;;;;;;40.67;27.33;;;;;2.36;94.88;98017.49;113147;239;39842;-51
2024/01/18 10:30:15;;;;;;;;;32.75;23.50;;;;;2.38;94.73;98009.55;113133;238;39742;-52
2024/01/18 10:32:51;;;;;;;;;30.00;22.00;;;;;2.43;94.69;98010.68;113164;238;40505;-56
2024/01/18 10:35:28;;;;;;;;;32.25;23.00;;;;;2.33;94.42;98026.98;113149;238;40275;-57
2024/01/18 10:38:10;;;;;;;;;35.25;24.00;;;;;2.17;94.26;98039.70;113161;239;39680;-53
2024/01/18 10:40:54;;;;;;;;;33.75;23.00;;;;;2.22;94.01;98051.30;113136;239;40053;-65
2024/01/18 10:43:34;;;;;;;;;28.50;19.25;;;;;2.23;93.83;98062.39;113162;238;40878;-51
2024/01/18 10:46:10;;;;;;;;;31.50;22.50;;;;;2.09;93.88;98078.23;113171;238;40552;-50
2024/01/18 10:48:49;;;;;;;;;36.00;24.00;;;;;1.97;93.99;98082.75;113214;239;40326;-55
2024/01/18 10:51:26;;;;;;;;;32.00;22.00;;;;;1.92;93.81;98091.92;113224;238;39701;-55
2024/01/18 10:54:10;;;;;;;;;37.00;25.25;;;;;1.90;93.79;98095.42;113100;238;39001;-51
2024/01/18 10:56:47;;;;;;;;;28.00;20.00;;;;;1.85;93.60;98098.11;113192;239;39584;-53
2024/01/18 10:59:22;;;;;;;;;41.25;30.25;;;;;1.85;93.54;98103.44;113074;238;40907;-56
2024/01/18 11:01:59;;;;;;;;;31.00;23.00;;;;;1.85;93.41;98107.17;113114;239;40422;-54
2024/01/18 11:04:34;;;;;;;;;31.50;23.00;;;;;1.88;93.39;98111.46;113083;238;39660;-53
2024/01/18 11:07:23;;;;;;;;;32.00;23.00;;;;;1.87;93.26;98119.31;113175;238;40630;-55
2024/01/18 11:09:59;;;;;;;;;36.33;25.00;;;;;1.84;93.21;98119.58;113066;238;40442;-55
2024/01/18 11:12:37;;;;;;;;;44.00;29.00;;;;;1.72;93.42;98118.75;113131;238;39605;-50
2024/01/18 11:15:17;;;;;;;;;39.75;28.00;;;;;1.62;93.70;98125.11;113125;238;39231;-51
2024/01/18 11:17:54;;;;;;;;;36.00;25.50;;;;;1.59;93.70;98129.02;113150;239;41272;-54
2024/01/18 11:20:33;;;;;;;;;44.00;31.50;;;;;1.39;93.68;98121.04;113109;238;39848;-54
2024/01/18 11:23:11;;;;;;;;;32.50;23.00;;;;;1.32;93.62;98111.10;113166;238;39431;-50
2024/01/18 11:25:49;;;;;;;;;39.00;26.50;;;;;1.29;93.68;98118.02;113141;239;40853;-50
2024/01/18 11:28:33;;;;;;;;;39.00;27.00;;;;;1.34;93.73;98119.40;113175;238;39391;-54
2024/01/18 11:31:12;;;;;;;;;44.50;31.00;;;;;1.25;93.82;98117.45;113116;238;40078;-54
2024/01/18 11:33:56;;;;;;;;;33.50;23.75;;;;;1.23;93.80;98122.31;113163;238;39677;-50
2024/01/18 11:36:36;;;;;;;;;35.00;25.00;;;;;1.21;93.64;98119.73;113167;238;39849;-53
2024/01/18 11:39:36;;;;;;;;;37.00;26.50;;;;;1.31;93.44;98129.17;113088;239;39572;-50
2024/01/18 11:42:16;;;;;;;;;23.25;16.00;;;;;1.30;93.33;98131.79;113188;238;39318;-56
2024/01/18 11:45:16;;;;;;;;;35.50;25.00;;;;;1.25;93.22;98138.30;113118;238;41076;-55
2024/01/18 11:47:58;;;;;;;;;32.25;22.00;;;;;1.27;93.42;98145.45;113168;238;39339;-54
2024/01/18 11:50:35;;;;;;;;;43.33;30.00;;;;;1.37;93.22;98152.50;113117;238;40327;-54
2024/01/18 11:53:12;;;;;;;;;37.00;26.33;;;;;1.40;93.19;98154.41;113169;238;39122;-56
2024/01/18 11:55:51;;;;;;;;;40.00;28.00;;;;;1.34;93.23;98168.13;113106;238;39423;-57
2024/01/18 11:58:33;;;;;;;;;38.00;26.50;;;;;1.33;93.14;98171.96;113117;238;40214;-54
2024/01/18 12:01:14;;;;;;;;;37.25;24.00;;;;;1.40;92.93;98178.27;113058;238;39235;-53
2024/01/18 12:03:52;;;;;;;;;36.50;24.50;;;;;1.39;93.02;98180.27;113178;238;40309;-52
2024/01/18 12:06:30;;;;;;;;;45.50;32.00;;;;;1.42;93.10;98182.23;113118;238;39613;-50
2024/01/18 12:09:08;;;;;;;;;31.00;22.00;;;;;1.51;92.90;98186.76;113209;238;40872;-54
2024/01/18 12:11:49;;;;;;;;;39.75;26.00;;;;;1.58;93.00;98181.76;113149;238;40109;-53
2024/01/18 12:14:23;;;;;;;;;39.50;28.25;;;;;1.59;93.07;98178.33;113200;238;39897;-53
2024/01/18 12:17:00;;;;;;;;;36.75;24.75;;;;;1.60;92.95;98175.19;113201;238;39981;-50